createdAt,value
2016-12-08T00:00:18.859Z,1021.6
2016-12-08T00:10:33.594Z,1021.6
2016-12-08T00:20:47.233Z,1021.6
2016-12-08T00:31:02.137Z,1021.6
2016-12-08T00:41:17.173Z,1021.4
2016-12-08T00:51:30.768Z,1021.3
2016-12-08T01:01:45.355Z,1021.5
2016-12-08T01:11:58.691Z,1021.6
2016-12-08T01:22:12.216Z,1021.6
2016-12-08T01:32:26.142Z,1021.6
2016-12-08T01:42:39.099Z,1021.6
2016-12-08T01:52:54.104Z,1021.6
2016-12-08T02:03:08.280Z,1021.7
2016-12-08T02:13:21.880Z,1021.8
2016-12-08T02:23:36.430Z,1021.6
2016-12-08T02:33:51.101Z,1021.6
2016-12-08T02:44:04.723Z,1021.6
2016-12-08T02:54:19.144Z,1021.6
2016-12-08T03:04:32.475Z,1021.5
2016-12-08T03:14:45.881Z,1021.5
2016-12-08T03:24:59.539Z,1021.5
2016-12-08T03:35:14.158Z,1021.4
2016-12-08T03:45:28.963Z,1021.4
2016-12-08T03:55:42.914Z,1021.1
2016-12-08T04:05:58.058Z,1021.3
2016-12-08T04:16:12.225Z,1021.3
2016-12-08T04:26:26.546Z,1021.2
2016-12-08T04:36:40.504Z,1020.9
2016-12-08T04:46:54.374Z,1021.1
2016-12-08T04:57:08.281Z,1021.2
2016-12-08T05:07:22.563Z,1021.2
2016-12-08T05:17:37.555Z,1021.1
2016-12-08T05:27:52.374Z,1021.2
2016-12-08T05:38:07.406Z,1021.3
2016-12-08T05:48:21.795Z,1021.2
2016-12-08T05:58:36.733Z,1021.2
2016-12-08T06:08:50.157Z,1021.2
2016-12-08T06:19:04.906Z,1021.2
2016-12-08T06:29:18.903Z,1021.3
2016-12-08T06:39:31.917Z,1021.3
2016-12-08T06:49:45.089Z,1021.4
2016-12-08T06:59:58.521Z,1021.4
2016-12-08T07:10:12.201Z,1021.4
2016-12-08T07:20:27.181Z,1021.5
2016-12-08T07:30:41.242Z,1021.5
2016-12-08T07:40:54.496Z,1021.5
2016-12-08T07:51:08.342Z,1021.5
2016-12-08T08:01:22.541Z,1021.5
2016-12-08T08:11:37.041Z,1021.5
2016-12-08T08:21:51.479Z,1021.3
2016-12-08T08:32:05.904Z,1021.4
2016-12-08T08:42:19.784Z,1021.3
2016-12-08T08:52:33.370Z,1021.5
2016-12-08T09:02:47.426Z,1021.4
2016-12-08T09:13:02.206Z,1021.4
2016-12-08T09:23:16.592Z,1021.3
2016-12-08T09:33:30.356Z,1021.2
2016-12-08T09:43:44.152Z,1021
2016-12-08T09:53:57.847Z,1021
2016-12-08T10:04:12.149Z,1020.9
2016-12-08T10:14:26.946Z,1020.8
2016-12-08T10:24:40.946Z,1020.7
2016-12-08T10:34:55.543Z,1020.7
2016-12-08T10:45:08.726Z,1020.6
2016-12-08T10:55:22.635Z,1020.4
2016-12-08T11:05:36.825Z,1020.3
2016-12-08T11:15:50.344Z,1020.3
2016-12-08T11:26:03.523Z,1020.3
2016-12-08T11:36:18.215Z,1020.2
2016-12-08T11:46:31.657Z,1020.2
2016-12-08T11:56:44.810Z,1020.2
2016-12-08T12:06:59.512Z,1020.1
2016-12-08T12:17:13.683Z,1020
2016-12-08T12:37:41.419Z,1019.8
2016-12-08T12:47:54.958Z,1019.9
2016-12-08T12:58:09.952Z,1019.9
2016-12-08T13:08:25.123Z,1019.7
2016-12-08T13:18:40.298Z,1019.7
2016-12-08T13:28:54.294Z,1019.5
2016-12-08T13:39:07.385Z,1019.4
2016-12-08T13:49:22.463Z,1019.1
2016-12-08T13:59:37.450Z,1019.3
2016-12-08T14:09:50.783Z,1019.3
2016-12-08T14:20:05.882Z,1019.1
2016-12-08T14:30:20.185Z,1019.2
2016-12-08T14:40:34.638Z,1019
2016-12-08T14:50:49.609Z,1019.2
2016-12-08T15:01:03.831Z,1019.3
2016-12-08T15:11:17.919Z,1019.3
2016-12-08T15:21:31.150Z,1019.2
2016-12-08T15:31:44.933Z,1018.9
2016-12-08T15:41:59.924Z,1018.5
2016-12-08T15:52:13.156Z,1018.6
2016-12-08T16:02:27.786Z,1018.5
2016-12-08T16:12:41.133Z,1018.6
2016-12-08T16:22:55.495Z,1018.7
2016-12-08T16:33:08.871Z,1018.6
2016-12-08T16:43:23.437Z,1018.5
2016-12-08T16:53:37.234Z,1018.7
2016-12-08T17:03:51.432Z,1018.8
2016-12-08T17:14:04.726Z,1018.7
2016-12-08T17:24:17.791Z,1018.7
2016-12-08T17:34:31.745Z,1019
2016-12-08T17:44:46.957Z,1018.7
2016-12-08T17:55:01.204Z,1018.6
2016-12-08T18:05:15.596Z,1018.4
2016-12-08T18:15:29.973Z,1018.9
2016-12-08T18:25:44.879Z,1019
2016-12-08T18:35:58.490Z,1018.9
2016-12-08T18:46:12.023Z,1019.1
2016-12-08T18:56:25.299Z,1018.9
2016-12-08T19:06:40.057Z,1018.7
2016-12-08T19:16:54.588Z,1018.6
2016-12-08T19:27:08.187Z,1018.6
2016-12-08T19:37:22.496Z,1018.6
2016-12-08T19:47:35.953Z,1018.8
2016-12-08T19:57:50.024Z,1018.7
2016-12-08T20:08:04.424Z,1018.9
2016-12-08T20:28:31.363Z,1019.1
2016-12-08T20:38:46.464Z,1019.2
2016-12-08T20:48:59.633Z,1019.2
2016-12-08T20:59:13.204Z,1019.2
2016-12-08T21:09:26.616Z,1019.2
2016-12-08T21:19:40.433Z,1019.3
2016-12-08T21:29:53.936Z,1019.3
2016-12-08T21:40:08.877Z,1019.2
2016-12-08T21:50:23.583Z,1019.3
2016-12-08T22:00:37.937Z,1019.4
2016-12-08T22:10:52.809Z,1019.5
2016-12-08T22:21:06.359Z,1019.4
2016-12-08T22:31:19.739Z,1019.4
2016-12-08T22:41:33.697Z,1019.4
2016-12-08T22:51:47.472Z,1019.5
2016-12-08T23:02:01.068Z,1019.6
2016-12-08T23:12:14.569Z,1019.7
2016-12-08T23:22:28.324Z,1019.5
2016-12-08T23:32:42.391Z,1019.3
2016-12-08T23:42:56.864Z,1019.2
2016-12-08T23:53:10.633Z,1019.1
